createdAt,value
2022-12-18T00:02:01.997Z,-9.36
2022-12-18T00:04:28.806Z,-9.38
2022-12-18T00:06:55.299Z,-9.25
2022-12-18T00:09:21.912Z,-9.18
2022-12-18T00:11:51.277Z,-9.12
2022-12-18T00:14:17.806Z,-9.10
2022-12-18T00:16:45.827Z,-9.23
2022-12-18T00:19:12.607Z,-9.28
2022-12-18T00:21:38.985Z,-9.30
2022-12-18T00:24:05.567Z,-9.32
2022-12-18T00:26:33.862Z,-9.29
2022-12-18T00:29:02.205Z,-9.32
2022-12-18T00:31:28.972Z,-9.32
2022-12-18T00:33:56.725Z,-9.37
2022-12-18T00:36:28.644Z,-9.36
2022-12-18T00:38:55.483Z,-9.30
2022-12-18T00:41:41.033Z,-9.28
2022-12-18T00:44:08.923Z,-9.22
2022-12-18T00:46:35.297Z,-9.00
2022-12-18T00:49:01.871Z,-9.08
2022-12-18T00:51:28.323Z,-9.17
2022-12-18T00:53:54.731Z,-9.20
2022-12-18T00:56:21.097Z,-9.19
2022-12-18T00:58:47.442Z,-9.26
2022-12-18T01:01:13.929Z,-9.10
2022-12-18T01:03:40.951Z,-9.11
2022-12-18T01:06:10.294Z,-9.08
2022-12-18T01:08:37.079Z,-9.14
2022-12-18T01:11:12.606Z,-8.99
2022-12-18T01:13:40.470Z,-9.14
2022-12-18T01:16:07.621Z,-9.28
2022-12-18T01:18:34.016Z,-9.31
2022-12-18T01:21:00.372Z,-9.36
2022-12-18T01:23:27.761Z,-9.33
2022-12-18T01:25:54.106Z,-9.25
2022-12-18T01:28:20.549Z,-9.33
2022-12-18T01:30:46.913Z,-9.42
2022-12-18T01:33:13.320Z,-9.36
2022-12-18T01:35:43.451Z,-9.34
2022-12-18T01:38:10.207Z,-9.25
2022-12-18T01:40:36.915Z,-9.36
2022-12-18T01:43:03.345Z,-9.57
2022-12-18T01:45:31.382Z,-9.55
2022-12-18T01:48:03.732Z,-9.58
2022-12-18T01:50:48.340Z,-9.72
2022-12-18T01:53:20.854Z,-9.58
2022-12-18T01:55:56.360Z,-9.57
2022-12-18T01:58:41.543Z,-9.64
2022-12-18T02:01:08.344Z,-9.66
2022-12-18T02:03:34.912Z,-9.88
2022-12-18T02:06:01.278Z,-10.04
2022-12-18T02:08:35.474Z,-9.94
2022-12-18T02:11:19.997Z,-9.99
2022-12-18T02:14:09.265Z,-9.92
2022-12-18T02:16:40.580Z,-9.86
2022-12-18T02:19:27.185Z,-9.59
2022-12-18T02:22:32.542Z,-9.52
2022-12-18T02:25:21.419Z,-9.47
2022-12-18T02:27:48.268Z,-9.53
2022-12-18T02:30:15.460Z,-9.70
2022-12-18T02:32:45.914Z,-9.66
2022-12-18T02:35:16.537Z,-9.73
2022-12-18T02:37:44.398Z,-9.64
2022-12-18T02:40:12.256Z,-9.57
2022-12-18T02:42:38.909Z,-9.65
2022-12-18T02:45:05.742Z,-9.72
2022-12-18T02:47:34.648Z,-9.62
2022-12-18T02:50:20.980Z,-9.74
2022-12-18T02:53:17.772Z,-9.67
2022-12-18T02:56:16.288Z,-9.59
2022-12-18T02:59:16.991Z,-9.53
2022-12-18T03:01:43.391Z,-9.40
2022-12-18T03:04:22.278Z,-9.48
2022-12-18T03:06:51.027Z,-9.69
2022-12-18T03:09:21.850Z,-9.61
2022-12-18T03:12:13.991Z,-9.61
2022-12-18T03:14:41.221Z,-9.82
2022-12-18T03:17:13.408Z,-9.97
2022-12-18T03:19:40.212Z,-9.95
2022-12-18T03:22:08.223Z,-9.72
2022-12-18T03:24:38.285Z,-9.76
2022-12-18T03:27:07.239Z,-9.86
2022-12-18T03:29:39.949Z,-9.79
2022-12-18T03:32:11.930Z,-9.60
2022-12-18T03:34:38.873Z,-9.65
2022-12-18T03:37:06.713Z,-9.69
2022-12-18T03:39:34.927Z,-9.84
2022-12-18T03:42:24.975Z,-9.88
2022-12-18T03:44:59.153Z,-9.78
2022-12-18T03:47:33.448Z,-9.70
2022-12-18T03:50:13.655Z,-9.56
2022-12-18T03:52:56.879Z,-9.74
2022-12-18T03:55:24.080Z,-9.87
2022-12-18T03:57:51.623Z,-9.74
2022-12-18T04:00:19.189Z,-9.71
2022-12-18T04:03:05.400Z,-9.66
2022-12-18T04:05:33.424Z,-9.56
2022-12-18T04:08:00.011Z,-9.59
2022-12-18T04:10:26.373Z,-9.48
2022-12-18T04:12:56.747Z,-9.43
2022-12-18T04:15:23.114Z,-9.36
2022-12-18T04:17:50.536Z,-9.37
2022-12-18T04:20:17.803Z,-9.53
2022-12-18T04:22:44.183Z,-9.48
2022-12-18T04:25:10.558Z,-9.45
2022-12-18T04:27:36.940Z,-9.55
2022-12-18T04:30:03.754Z,-9.56
2022-12-18T04:32:30.105Z,-9.70
2022-12-18T04:34:56.467Z,-9.71
2022-12-18T04:37:22.899Z,-9.76
2022-12-18T04:39:49.416Z,-9.67
2022-12-18T04:42:15.774Z,-9.63
2022-12-18T04:44:42.168Z,-9.62
2022-12-18T04:47:08.585Z,-9.55
2022-12-18T04:49:34.971Z,-9.52
2022-12-18T04:52:01.414Z,-9.44
2022-12-18T04:54:27.795Z,-9.63
2022-12-18T04:56:54.149Z,-9.60
2022-12-18T04:59:21.605Z,-9.68
2022-12-18T05:01:48.060Z,-9.75
2022-12-18T05:04:14.614Z,-9.80
2022-12-18T05:06:41.005Z,-9.83
2022-12-18T05:09:07.391Z,-9.75
2022-12-18T05:11:33.766Z,-9.74
2022-12-18T05:14:00.135Z,-9.64
2022-12-18T05:16:26.527Z,-9.37
2022-12-18T05:18:52.981Z,-9.46
2022-12-18T05:21:19.342Z,-9.54
2022-12-18T05:23:45.730Z,-9.45
2022-12-18T05:26:16.363Z,-9.50
2022-12-18T05:28:42.898Z,-9.52
2022-12-18T05:31:09.381Z,-9.43
2022-12-18T05:33:36.203Z,-9.44
2022-12-18T05:36:04.954Z,-9.52
2022-12-18T05:38:32.769Z,-9.53
2022-12-18T05:40:59.263Z,-9.57
2022-12-18T05:43:26.399Z,-9.62
2022-12-18T05:45:53.784Z,-9.71
2022-12-18T05:48:20.598Z,-9.73
2022-12-18T05:50:48.500Z,-9.71
2022-12-18T05:53:16.826Z,-9.72
2022-12-18T05:55:43.888Z,-9.70
2022-12-18T05:58:11.421Z,-9.91
2022-12-18T06:00:42.677Z,-9.81
2022-12-18T06:03:10.197Z,-9.82
2022-12-18T06:05:43.344Z,-9.63
2022-12-18T06:08:10.400Z,-9.60
2022-12-18T06:10:36.917Z,-9.72
2022-12-18T06:13:03.889Z,-9.83
2022-12-18T06:15:30.428Z,-9.88
2022-12-18T06:17:56.812Z,-9.92
2022-12-18T06:20:23.450Z,-9.85
2022-12-18T06:22:49.858Z,-9.83
2022-12-18T06:25:16.319Z,-9.84
2022-12-18T06:27:42.947Z,-9.76
2022-12-18T06:30:10.380Z,-9.77
2022-12-18T06:32:36.795Z,-9.76
2022-12-18T06:35:03.308Z,-9.66
2022-12-18T06:37:32.401Z,-9.38
2022-12-18T06:39:58.845Z,-9.53
2022-12-18T06:42:25.507Z,-9.58
2022-12-18T06:44:51.902Z,-9.49
2022-12-18T06:47:19.048Z,-9.39
2022-12-18T06:49:45.414Z,-9.55
2022-12-18T06:52:11.812Z,-9.48
2022-12-18T06:54:38.171Z,-9.53
2022-12-18T06:57:04.729Z,-9.52
2022-12-18T06:59:31.135Z,-9.59
2022-12-18T07:01:57.645Z,-9.56
2022-12-18T07:04:29.792Z,-9.59
2022-12-18T07:06:56.247Z,-9.47
2022-12-18T07:09:22.631Z,-9.40
2022-12-18T07:11:49.036Z,-9.55
2022-12-18T07:14:15.406Z,-9.57
2022-12-18T07:16:42.048Z,-9.76
2022-12-18T07:19:08.548Z,-9.71
2022-12-18T07:21:34.934Z,-9.62
2022-12-18T07:24:01.409Z,-9.45
2022-12-18T07:26:27.864Z,-9.43
2022-12-18T07:28:56.587Z,-9.35
2022-12-18T07:31:23.334Z,-9.29
2022-12-18T07:33:50.694Z,-9.27
2022-12-18T07:36:17.243Z,-9.12
2022-12-18T07:38:43.860Z,-9.03
2022-12-18T07:41:14.432Z,-9.03
2022-12-18T07:43:42.329Z,-9.06
2022-12-18T07:46:10.144Z,-9.02
2022-12-18T07:48:36.697Z,-9.06
2022-12-18T07:51:05.539Z,-8.88
2022-12-18T07:53:32.953Z,-8.77
2022-12-18T07:56:26.010Z,-8.80
2022-12-18T07:58:47.787Z,-8.82
2022-12-18T08:01:15.373Z,-8.85
2022-12-18T08:03:42.231Z,-8.88
2022-12-18T08:06:10.301Z,-8.97
2022-12-18T08:08:36.807Z,-8.83
2022-12-18T08:11:03.258Z,-8.70
2022-12-18T08:13:29.740Z,-8.75
2022-12-18T08:16:03.909Z,-8.72
2022-12-18T08:18:30.304Z,-8.66
2022-12-18T08:20:56.834Z,-8.79
2022-12-18T08:23:24.187Z,-8.55
2022-12-18T08:25:52.883Z,-8.53
2022-12-18T08:28:19.297Z,-8.47
2022-12-18T08:30:45.692Z,-8.51
2022-12-18T08:33:12.082Z,-8.23
2022-12-18T08:35:44.086Z,-8.24
2022-12-18T08:38:12.085Z,-8.08
2022-12-18T08:40:38.495Z,-8.13
2022-12-18T08:43:23.391Z,-7.96
2022-12-18T08:45:49.870Z,-7.99
2022-12-18T08:48:21.855Z,-8.03
2022-12-18T08:50:58.853Z,-7.97
2022-12-18T08:53:25.447Z,-7.84
2022-12-18T08:55:51.850Z,-7.69
2022-12-18T08:58:18.732Z,-7.53
2022-12-18T09:00:45.163Z,-7.48
2022-12-18T09:03:13.595Z,-7.41
2022-12-18T09:05:40.154Z,-7.36
2022-12-18T09:08:06.745Z,-7.40
2022-12-18T09:10:33.334Z,-7.30
2022-12-18T09:13:00.017Z,-7.11
2022-12-18T09:15:26.447Z,-7.02
2022-12-18T09:17:53.793Z,-7.02
2022-12-18T09:20:20.193Z,-6.91
2022-12-18T09:22:46.567Z,-6.77
2022-12-18T09:25:12.924Z,-6.64
2022-12-18T09:27:40.173Z,-6.53
2022-12-18T09:30:07.347Z,-6.34
2022-12-18T09:32:33.735Z,-6.48
2022-12-18T09:35:00.532Z,-6.61
2022-12-18T09:37:26.985Z,-6.49
2022-12-18T09:39:53.456Z,-6.44
2022-12-18T09:42:23.422Z,-6.36
2022-12-18T09:44:54.466Z,-6.31
2022-12-18T09:47:29.782Z,-6.19
2022-12-18T09:50:00.146Z,-6.24
2022-12-18T09:52:31.599Z,-6.36
2022-12-18T09:55:02.409Z,-6.17
2022-12-18T09:57:30.946Z,-6.12
2022-12-18T10:00:08.065Z,-5.94
2022-12-18T10:02:34.611Z,-5.81
2022-12-18T10:05:17.864Z,-5.38
2022-12-18T10:08:00.572Z,-5.15
2022-12-18T10:10:48.439Z,-5.05
2022-12-18T10:13:36.791Z,-4.95
2022-12-18T10:16:44.273Z,-4.85
2022-12-18T10:19:23.046Z,-4.52
2022-12-18T10:21:55.968Z,-4.49
2022-12-18T10:24:36.816Z,-4.27
2022-12-18T10:27:16.309Z,-4.19
2022-12-18T10:29:45.030Z,-3.97
2022-12-18T10:32:17.267Z,-3.94
2022-12-18T10:34:46.575Z,-3.88
2022-12-18T10:37:18.452Z,-3.80
2022-12-18T10:39:45.270Z,-3.69
2022-12-18T10:42:17.999Z,-3.69
2022-12-18T10:44:44.944Z,-3.71
2022-12-18T10:47:16.832Z,-3.62
2022-12-18T10:49:51.790Z,-3.62
2022-12-18T10:52:26.275Z,-3.57
2022-12-18T10:55:02.733Z,-3.50
2022-12-18T10:57:38.008Z,-3.42
2022-12-18T11:00:25.133Z,-3.36
2022-12-18T11:02:52.240Z,-3.31
2022-12-18T11:05:29.855Z,-3.26
2022-12-18T11:07:57.126Z,-3.20
2022-12-18T11:10:31.224Z,-3.07
2022-12-18T11:13:11.054Z,-2.84
2022-12-18T11:15:37.913Z,-2.68
2022-12-18T11:18:04.497Z,-2.65
2022-12-18T11:20:35.592Z,-2.57
2022-12-18T11:23:11.484Z,-2.46
2022-12-18T11:25:37.884Z,-2.49
2022-12-18T11:28:24.405Z,-2.45
2022-12-18T11:30:55.837Z,-2.45
2022-12-18T11:33:22.860Z,-2.40
2022-12-18T11:35:53.216Z,-2.30
2022-12-18T11:38:26.202Z,-2.33
2022-12-18T11:41:05.577Z,-2.31
2022-12-18T11:43:48.546Z,-2.15
2022-12-18T11:46:27.614Z,-2.19
2022-12-18T11:49:04.886Z,-1.96
2022-12-18T11:51:36.422Z,-2.01
2022-12-18T11:54:12.648Z,-2.05
2022-12-18T11:56:45.768Z,-2.11
2022-12-18T11:59:34.852Z,-2.26
2022-12-18T12:02:20.945Z,-2.13
2022-12-18T12:05:24.597Z,-2.21
2022-12-18T12:08:25.059Z,-2.20
2022-12-18T12:11:07.554Z,-2.19
2022-12-18T12:13:41.437Z,-2.08
2022-12-18T12:16:47.174Z,-2.12
2022-12-18T12:19:41.272Z,-2.13
2022-12-18T12:22:33.972Z,-2.01
2022-12-18T12:25:12.870Z,-2.11
2022-12-18T12:27:48.258Z,-1.97
2022-12-18T12:30:21.528Z,-1.86
2022-12-18T12:32:55.195Z,-1.94
2022-12-18T12:35:37.418Z,-2.12
2022-12-18T12:38:21.041Z,-2.19
2022-12-18T12:41:03.642Z,-2.00
2022-12-18T12:43:44.628Z,-2.09
2022-12-18T12:46:18.916Z,-1.94
2022-12-18T12:48:57.858Z,-1.92
2022-12-18T12:51:30.570Z,-2.06
2022-12-18T12:53:58.642Z,-1.95
2022-12-18T12:56:31.601Z,-1.91
2022-12-18T12:59:32.958Z,-1.87
2022-12-18T13:02:11.865Z,-1.83
2022-12-18T13:04:59.093Z,-1.75
2022-12-18T13:07:30.607Z,-1.96
2022-12-18T13:10:20.521Z,-1.95
2022-12-18T13:12:56.812Z,-2.10
2022-12-18T13:15:36.746Z,-1.97
2022-12-18T13:18:09.553Z,-2.13
2022-12-18T13:20:39.432Z,-2.18
2022-12-18T13:23:24.668Z,-2.03
2022-12-18T13:25:52.006Z,-2.01
2022-12-18T13:28:22.942Z,-1.92
2022-12-18T13:30:50.883Z,-2.09
2022-12-18T13:33:26.652Z,-2.02
2022-12-18T13:36:01.774Z,-1.87
2022-12-18T13:38:41.497Z,-2.05
2022-12-18T13:41:08.372Z,-1.93
2022-12-18T13:43:41.079Z,-1.83
2022-12-18T13:46:43.858Z,-1.92
2022-12-18T13:49:13.143Z,-2.03
2022-12-18T13:51:48.847Z,-1.98
2022-12-18T13:54:22.859Z,-2.03
2022-12-18T13:56:49.834Z,-2.01
2022-12-18T13:59:24.670Z,-1.86
2022-12-18T14:01:55.550Z,-1.83
2022-12-18T14:04:24.297Z,-1.84
2022-12-18T14:06:53.743Z,-1.90
2022-12-18T14:09:30.240Z,-1.88
2022-12-18T14:12:17.536Z,-1.92
2022-12-18T14:14:46.580Z,-1.93
2022-12-18T14:17:15.500Z,-1.94
2022-12-18T14:19:45.090Z,-1.86
2022-12-18T14:22:20.656Z,-1.89
2022-12-18T14:24:48.273Z,-1.99
2022-12-18T14:27:25.915Z,-2.09
2022-12-18T14:29:52.727Z,-1.98
2022-12-18T14:32:20.927Z,-2.01
2022-12-18T14:34:54.906Z,-2.00
2022-12-18T14:37:23.782Z,-1.99
2022-12-18T14:39:54.203Z,-2.13
2022-12-18T14:42:20.592Z,-2.05
2022-12-18T14:45:16.940Z,-2.03
2022-12-18T14:47:33.391Z,-2.00
2022-12-18T14:50:00.675Z,-2.07
2022-12-18T14:52:28.981Z,-2.14
2022-12-18T14:54:55.426Z,-2.10
2022-12-18T14:57:24.344Z,-2.13
2022-12-18T14:59:51.446Z,-2.11
2022-12-18T15:02:26.463Z,-2.08
2022-12-18T15:05:13.676Z,-2.15
2022-12-18T15:07:52.844Z,-2.18
2022-12-18T15:10:34.839Z,-2.23
2022-12-18T15:13:02.291Z,-2.14
2022-12-18T15:15:37.643Z,-2.28
2022-12-18T15:18:08.498Z,-2.25
2022-12-18T15:20:43.468Z,-2.42
2022-12-18T15:23:19.418Z,-2.21
2022-12-18T15:25:46.623Z,-2.38
2022-12-18T15:28:49.502Z,-2.30
2022-12-18T15:31:16.941Z,-2.21
2022-12-18T15:34:03.996Z,-2.41
2022-12-18T15:36:31.233Z,-2.39
2022-12-18T15:39:04.896Z,-2.41
2022-12-18T15:41:36.828Z,-2.31
2022-12-18T15:44:04.554Z,-2.22
2022-12-18T15:46:31.803Z,-2.15
2022-12-18T15:49:02.376Z,-2.12
2022-12-18T15:51:33.952Z,-2.09
2022-12-18T15:54:01.860Z,-2.11
2022-12-18T15:56:46.826Z,-2.04
2022-12-18T15:59:15.589Z,-1.99
2022-12-18T16:01:44.239Z,-2.03
2022-12-18T16:04:15.115Z,-1.93
2022-12-18T16:07:12.660Z,-1.98
2022-12-18T16:09:28.352Z,-2.12
2022-12-18T16:11:54.739Z,-2.09
2022-12-18T16:14:22.382Z,-2.12
2022-12-18T16:17:02.805Z,-2.11
2022-12-18T16:19:30.141Z,-2.15
2022-12-18T16:21:57.882Z,-2.23
2022-12-18T16:24:26.821Z,-2.17
2022-12-18T16:26:53.930Z,-2.25
2022-12-18T16:29:25.552Z,-2.21
2022-12-18T16:31:52.449Z,-2.21
2022-12-18T16:34:29.039Z,-2.07
2022-12-18T16:37:03.144Z,-2.07
2022-12-18T16:39:31.769Z,-2.18
2022-12-18T16:41:58.642Z,-2.23
2022-12-18T16:44:25.982Z,-2.14
2022-12-18T16:46:52.509Z,-2.11
2022-12-18T16:49:19.883Z,-2.15
2022-12-18T16:51:47.016Z,-1.93
2022-12-18T16:54:18.854Z,-1.64
2022-12-18T16:56:47.747Z,-1.50
2022-12-18T16:59:14.122Z,-1.52
2022-12-18T17:01:41.891Z,-1.52
2022-12-18T17:04:08.858Z,-1.41
2022-12-18T17:06:39.696Z,-1.32
2022-12-18T17:09:09.197Z,-1.29
2022-12-18T17:11:36.414Z,-1.36
2022-12-18T17:14:11.158Z,-1.41
2022-12-18T17:16:37.562Z,-1.49
2022-12-18T17:19:05.880Z,-1.41
2022-12-18T17:21:32.261Z,-1.15
2022-12-18T17:24:02.072Z,-1.07
2022-12-18T17:26:29.296Z,-0.92
2022-12-18T17:28:59.268Z,-0.74
2022-12-18T17:31:27.681Z,-0.71
2022-12-18T17:33:54.496Z,-0.66
2022-12-18T17:36:21.403Z,-0.81
2022-12-18T17:38:53.997Z,-0.99
2022-12-18T17:41:20.906Z,-1.07
2022-12-18T17:43:54.583Z,-1.23
2022-12-18T17:46:21.135Z,-1.22
2022-12-18T17:48:47.885Z,-1.27
2022-12-18T17:51:17.469Z,-0.96
2022-12-18T17:53:44.585Z,-0.77
2022-12-18T17:56:13.833Z,-0.85
2022-12-18T17:58:40.770Z,-0.79
2022-12-18T18:01:07.402Z,-0.71
2022-12-18T18:03:34.663Z,-0.43
2022-12-18T18:06:02.424Z,-0.54
2022-12-18T18:08:29.349Z,-0.49
2022-12-18T18:11:16.046Z,-0.43
2022-12-18T18:14:00.802Z,-0.33
2022-12-18T18:16:49.918Z,-0.22
2022-12-18T18:19:19.349Z,-0.07
2022-12-18T18:21:47.280Z,-0.08
2022-12-18T18:24:17.027Z,-0.02
2022-12-18T18:26:43.973Z,-0.03
2022-12-18T18:29:15.651Z,0.15
2022-12-18T18:31:42.205Z,0.05
2022-12-18T18:34:14.512Z,-0.06
2022-12-18T18:36:40.797Z,-0.02
2022-12-18T18:39:07.193Z,-0.05
2022-12-18T18:41:35.529Z,0.06
2022-12-18T18:44:01.914Z,0.11
2022-12-18T18:46:28.291Z,-0.02
2022-12-18T18:48:55.199Z,0.05
2022-12-18T18:51:22.461Z,0.11
2022-12-18T18:53:50.839Z,0.20
2022-12-18T18:56:56.267Z,0.08
2022-12-18T18:59:06.065Z,0.11
2022-12-18T19:01:33.008Z,0.10
2022-12-18T19:04:00.701Z,0.13
2022-12-18T19:06:28.402Z,0.12
2022-12-18T19:08:56.402Z,0.04
2022-12-18T19:11:42.867Z,-0.01
2022-12-18T19:14:11.340Z,-0.08
2022-12-18T19:16:38.214Z,-0.05
2022-12-18T19:19:05.113Z,-0.03
2022-12-18T19:21:34.237Z,0.00
2022-12-18T19:24:02.347Z,0.02
2022-12-18T19:26:29.078Z,-0.03
2022-12-18T19:29:01.860Z,0.11
2022-12-18T19:31:34.777Z,0.14
2022-12-18T19:34:02.404Z,0.09
2022-12-18T19:36:29.899Z,0.05
2022-12-18T19:38:58.761Z,0.10
2022-12-18T19:41:25.681Z,0.09
2022-12-18T19:43:55.348Z,0.10
2022-12-18T19:46:22.913Z,0.16
2022-12-18T19:48:50.008Z,0.02
2022-12-18T19:51:24.615Z,-0.05
2022-12-18T19:53:57.843Z,0.02
2022-12-18T19:56:26.804Z,-0.04
2022-12-18T19:58:53.814Z,-0.11
2022-12-18T20:01:22.717Z,-0.03
2022-12-18T20:03:52.751Z,-0.12
2022-12-18T20:06:45.956Z,-0.07
2022-12-18T20:09:12.436Z,-0.03
2022-12-18T20:11:41.983Z,-0.08
2022-12-18T20:14:10.247Z,-0.15
2022-12-18T20:16:36.787Z,-0.08
2022-12-18T20:19:04.081Z,-0.04
2022-12-18T20:21:30.665Z,-0.10
2022-12-18T20:23:57.179Z,-0.12
2022-12-18T20:26:24.747Z,-0.15
2022-12-18T20:28:51.700Z,-0.05
2022-12-18T20:31:18.098Z,0.03
2022-12-18T20:33:47.599Z,0.06
2022-12-18T20:36:21.130Z,-0.03
2022-12-18T20:38:49.442Z,0.03
2022-12-18T20:41:18.610Z,0.11
2022-12-18T20:43:45.695Z,0.19
2022-12-18T20:46:13.547Z,0.15
2022-12-18T20:48:40.271Z,0.13
2022-12-18T20:51:09.447Z,0.08
2022-12-18T20:53:36.144Z,0.14
2022-12-18T20:56:08.680Z,0.20
2022-12-18T20:58:35.643Z,0.23
2022-12-18T21:01:04.612Z,0.25
2022-12-18T21:03:31.106Z,0.29
2022-12-18T21:05:57.538Z,0.40
2022-12-18T21:08:23.920Z,0.33
2022-12-18T21:10:50.371Z,0.32
2022-12-18T21:13:17.306Z,0.30
2022-12-18T21:15:45.022Z,0.31
2022-12-18T21:18:11.482Z,0.40
2022-12-18T21:20:38.060Z,0.51
2022-12-18T21:23:16.001Z,0.33
2022-12-18T21:25:43.642Z,0.44
2022-12-18T21:28:10.009Z,0.29
2022-12-18T21:30:36.573Z,0.30
2022-12-18T21:33:03.088Z,0.35
2022-12-18T21:35:29.475Z,0.33
2022-12-18T21:37:58.719Z,0.40
2022-12-18T21:40:25.147Z,0.24
2022-12-18T21:43:10.234Z,0.28
2022-12-18T21:45:39.663Z,0.22
2022-12-18T21:48:06.151Z,0.29
2022-12-18T21:50:32.514Z,0.20
2022-12-18T21:52:58.887Z,0.10
2022-12-18T21:55:25.612Z,0.28
2022-12-18T21:57:53.690Z,0.21
2022-12-18T22:00:20.175Z,0.29
2022-12-18T22:02:47.663Z,0.32
2022-12-18T22:05:14.278Z,0.26
2022-12-18T22:07:40.712Z,0.30
2022-12-18T22:10:07.796Z,0.39
2022-12-18T22:12:39.790Z,0.31
2022-12-18T22:15:11.823Z,0.38
2022-12-18T22:17:40.289Z,0.29
2022-12-18T22:20:09.168Z,0.31
2022-12-18T22:22:35.632Z,0.39
2022-12-18T22:25:02.272Z,0.38
2022-12-18T22:27:28.627Z,0.43
2022-12-18T22:30:03.985Z,0.49
2022-12-18T22:32:35.063Z,0.53
2022-12-18T22:35:08.392Z,0.42
2022-12-18T22:37:39.212Z,0.55
2022-12-18T22:40:07.215Z,0.45
2022-12-18T22:42:33.943Z,0.53
2022-12-18T22:45:00.518Z,0.68
2022-12-18T22:47:30.053Z,0.69
2022-12-18T22:49:56.709Z,0.70
2022-12-18T22:52:24.906Z,0.76
2022-12-18T22:54:53.675Z,0.63
2022-12-18T22:57:21.499Z,0.64
2022-12-18T22:59:47.939Z,0.52
2022-12-18T23:02:14.452Z,0.63
2022-12-18T23:04:41.029Z,0.58
2022-12-18T23:07:07.389Z,0.52
2022-12-18T23:09:33.885Z,0.59
2022-12-18T23:12:00.860Z,0.63
2022-12-18T23:14:28.089Z,0.67
2022-12-18T23:16:54.486Z,0.63
2022-12-18T23:19:23.607Z,0.61
2022-12-18T23:21:50.603Z,0.63
2022-12-18T23:24:17.003Z,0.57
2022-12-18T23:26:43.403Z,0.62
2022-12-18T23:29:09.830Z,0.56
2022-12-18T23:31:38.469Z,0.61
2022-12-18T23:34:06.028Z,0.50
2022-12-18T23:36:33.976Z,0.55
2022-12-18T23:39:11.418Z,0.56
2022-12-18T23:41:38.811Z,0.49
2022-12-18T23:44:05.179Z,0.66
2022-12-18T23:46:33.769Z,0.62
2022-12-18T23:49:02.439Z,0.64
2022-12-18T23:51:29.610Z,0.64
2022-12-18T23:53:58.083Z,0.69
2022-12-18T23:56:25.661Z,0.63
2022-12-18T23:58:52.883Z,0.62
